Time;durP1;ratioP1;P1;durP2;ratioP2;P2;SDS_P1;SDS_P2;PMS_P1;PMS_P2;Temp;Humidity;BMP_temperature;BMP_pressure;BME280_temperature;BME280_humidity;BME280_pressure;Samples;Min_cycle;Max_cycle;Signal;HPM_P1;HPM_P2
2021/01/20 00:01:10;;;;;;;;;;;;;;;;;;5075640;28;1034;-75
2021/01/20 00:03:35;;;;;;;;;;;;;;;;;;5075594;28;841;-75
2021/01/20 00:06:00;;;;;;;;;;;;;;;;;;5075483;28;1428;-77
2021/01/20 00:08:26;;;;;;;;;;;;;;;;;;5074022;28;1254;-74
2021/01/20 00:10:51;;;;;;;;;;;;;;;;;;5075235;28;837;-75
2021/01/20 00:13:16;;;;;;;;;;;;;;;;;;5074568;28;1139;-74
2021/01/20 00:15:42;;;;;;;;;;;;;;;;;;5073824;28;1386;-75
2021/01/20 00:18:08;;;;;;;;;;;;;;;;;;5073940;28;2370;-73
2021/01/20 00:20:33;;;;;;;;;;;;;;;;;;5074994;28;1004;-76
2021/01/20 00:22:58;;;;;;;;;;;;;;;;;;5073946;28;948;-75
2021/01/20 00:25:24;;;;;;;;;;;;;;;;;;5074295;28;1297;-74
2021/01/20 00:27:49;;;;;;;;;;;;;;;;;;5074949;28;893;-74
2021/01/20 00:30:15;;;;;;;;;;;;;;;;;;5074658;28;904;-76
2021/01/20 00:32:40;;;;;;;;;;;;;;;;;;5073811;28;889;-74
2021/01/20 00:35:07;;;;;;;;;;;;;;;;;;5074952;28;1424;-76
2021/01/20 00:37:32;;;;;;;;;;;;;;;;;;5074721;28;1953;-75
2021/01/20 00:39:57;;;;;;;;;;;;;;;;;;5074640;28;920;-74
2021/01/20 00:42:23;;;;;;;;;;;;;;;;;;5074918;28;901;-77
2021/01/20 00:44:48;;;;;;;;;;;;;;;;;;5074822;28;1393;-75
2021/01/20 00:47:13;;;;;;;;;;;;;;;;;;5073645;28;1178;-76
2021/01/20 00:49:39;;;;;;;;;;;;;;;;;;5074630;28;924;-75
2021/01/20 00:52:04;;;;;;;;;;;;;;;;;;5074610;28;1000;-74
2021/01/20 00:54:29;;;;;;;;;;;;;;;;;;5073315;28;1796;-77
2021/01/20 00:56:54;;;;;;;;;;;;;;;;;;5074700;28;1948;-74
2021/01/20 00:59:19;;;;;;;;;;;;;;;;;;5074734;28;877;-74
2021/01/20 01:01:45;;;;;;;;;;;;;;;;;;5073528;28;870;-77
2021/01/20 01:04:10;;;;;;;;;;;;;;;;;;5074458;28;885;-76
2021/01/20 01:06:35;;;;;;;;;;;;;;;;;;5073561;28;1436;-75
2021/01/20 01:09:00;;;;;;;;;;;;;;;;;;5074678;28;849;-74
2021/01/20 01:11:26;;;;;;;;;;;;;;;;;;5074489;28;943;-74
2021/01/20 01:13:51;;;;;;;;;;;;;;;;;;5073497;28;1395;-77
2021/01/20 01:16:16;;;;;;;;;;;;;;;;;;5074340;28;1385;-75
2021/01/20 01:18:41;;;;;;;;;;;;;;;;;;5074434;28;1898;-75
2021/01/20 01:21:06;;;;;;;;;;;;;;;;;;5073077;28;1186;-75
2021/01/20 01:23:33;;;;;;;;;;;;;;;;;;5074582;28;851;-75
2021/01/20 01:25:58;;;;;;;;;;;;;;;;;;5074089;28;1439;-73
2021/01/20 01:28:23;;;;;;;;;;;;;;;;;;5074544;28;897;-78
2021/01/20 01:30:48;;;;;;;;;;;;;;;;;;5073210;28;925;-74
2021/01/20 01:33:13;;;;;;;;;;;;;;;;;;5073544;28;889;-75
2021/01/20 01:35:39;;;;;;;;;;;;;;;;;;5074184;28;1408;-74
2021/01/20 01:38:04;;;;;;;;;;;;;;;;;;5077050;28;1951;-77
2021/01/20 01:40:29;;;;;;;;;;;;;;;;;;5078146;28;987;-75
2021/01/20 01:42:55;;;;;;;;;;;;;;;;;;5078365;28;825;-76
2021/01/20 01:45:21;;;;;;;;;;;;;;;;;;5076915;28;1372;-74
2021/01/20 01:47:46;;;;;;;;;;;;;;;;;;5078382;28;1046;-75
2021/01/20 01:50:12;;;;;;;;;;;;;;;;;;5078342;28;1624;-77
2021/01/20 01:52:37;;;;;;;;;;;;;;;;;;5077937;28;874;-74
2021/01/20 01:55:03;;;;;;;;;;;;;;;;;;5078175;28;1428;-73
2021/01/20 01:57:28;;;;;;;;;;;;;;;;;;5076908;28;1882;-77
2021/01/20 01:59:53;;;;;;;;;;;;;;;;;;5077949;28;1293;-74
2021/01/20 02:02:19;;;;;;;;;;;;;;;;;;5078038;28;959;-76
2021/01/20 02:04:44;;;;;;;;;;;;;;;;;;5077716;28;1277;-74
2021/01/20 02:07:10;;;;;;;;;;;;;;;;;;5076544;28;1665;-76
2021/01/20 02:09:35;;;;;;;;;;;;;;;;;;5076527;28;1316;-77
2021/01/20 02:12:00;;;;;;;;;;;;;;;;;;5077892;28;995;-75
2021/01/20 02:14:35;;;;;;;;;;;;;;;;;;5076796;28;857;-75
2021/01/20 02:17:19;;;;;;;;;;;;;;;;;;5076394;28;1957;-74
2021/01/20 02:19:59;;;;;;;;;;;;;;;;;;5076048;28;852;-75
2021/01/20 02:22:32;;;;;;;;;;;;;;;;;;5077614;28;869;-74
2021/01/20 02:25:16;;;;;;;;;;;;;;;;;;5077531;28;1464;-74
2021/01/20 02:27:47;;;;;;;;;;;;;;;;;;5077671;28;1194;-75
2021/01/20 02:30:14;;;;;;;;;;;;;;;;;;5077346;28;925;-77
2021/01/20 02:32:41;;;;;;;;;;;;;;;;;;5077314;28;908;-76
2021/01/20 02:35:07;;;;;;;;;;;;;;;;;;5076434;28;1447;-74
2021/01/20 02:37:34;;;;;;;;;;;;;;;;;;5075939;28;1893;-75
2021/01/20 02:39:59;;;;;;;;;;;;;;;;;;5077171;28;948;-77
2021/01/20 02:42:25;;;;;;;;;;;;;;;;;;5077258;28;912;-75
2021/01/20 02:44:50;;;;;;;;;;;;;;;;;;5077110;28;1317;-76
2021/01/20 02:47:15;;;;;;;;;;;;;;;;;;5075464;28;1194;-77
2021/01/20 02:49:41;;;;;;;;;;;;;;;;;;5076399;28;912;-77
2021/01/20 02:52:11;;;;;;;;;;;;;;;;;;5076998;28;944;-76
2021/01/20 02:54:38;;;;;;;;;;;;;;;;;;5076819;28;1281;-73
2021/01/20 02:57:03;;;;;;;;;;;;;;;;;;5076821;28;1881;-75
2021/01/20 02:59:30;;;;;;;;;;;;;;;;;;5075676;28;869;-74
2021/01/20 03:01:58;;;;;;;;;;;;;;;;;;5076724;28;932;-78
2021/01/20 03:04:25;;;;;;;;;;;;;;;;;;5076728;28;836;-74
2021/01/20 03:06:52;;;;;;;;;;;;;;;;;;5075454;28;1416;-76
2021/01/20 03:09:18;;;;;;;;;;;;;;;;;;5076935;28;789;-75
2021/01/20 03:11:48;;;;;;;;;;;;;;;;;;5077949;28;971;-73
2021/01/20 03:14:15;;;;;;;;;;;;;;;;;;5079563;28;928;-74
2021/01/20 03:16:40;;;;;;;;;;;;;;;;;;5077659;28;1955;-76
2021/01/20 03:19:06;;;;;;;;;;;;;;;;;;5077535;28;820;-76
2021/01/20 03:21:31;;;;;;;;;;;;;;;;;;5077236;28;775;-74
2021/01/20 03:23:57;;;;;;;;;;;;;;;;;;5077014;28;844;-75
2021/01/20 03:26:22;;;;;;;;;;;;;;;;;;5077515;28;1441;-74
2021/01/20 03:28:51;;;;;;;;;;;;;;;;;;5079009;28;928;-74
2021/01/20 03:31:25;;;;;;;;;;;;;;;;;;5075551;28;1135;-76
2021/01/20 03:33:54;;;;;;;;;;;;;;;;;;5077151;28;1042;-76
2021/01/20 03:36:20;;;;;;;;;;;;;;;;;;5075812;28;2106;-77
2021/01/20 03:38:45;;;;;;;;;;;;;;;;;;5075076;28;1965;-74
2021/01/20 03:41:17;;;;;;;;;;;;;;;;;;5075815;28;869;-76
2021/01/20 03:43:42;;;;;;;;;;;;;;;;;;5075363;28;1264;-77
2021/01/20 03:46:08;;;;;;;;;;;;;;;;;;5076449;28;1317;-74
2021/01/20 03:48:37;;;;;;;;;;;;;;;;;;5076997;28;1448;-77
2021/01/20 03:51:02;;;;;;;;;;;;;;;;;;5079317;28;840;-74
2021/01/20 03:53:28;;;;;;;;;;;;;;;;;;5076177;28;1287;-75
2021/01/20 03:55:53;;;;;;;;;;;;;;;;;;5074355;28;1424;-75
2021/01/20 03:58:18;;;;;;;;;;;;;;;;;;5074308;28;2018;-77
2021/01/20 04:00:43;;;;;;;;;;;;;;;;;;5074631;28;896;-75
2021/01/20 04:03:09;;;;;;;;;;;;;;;;;;5075795;28;892;-77
2021/01/20 04:05:34;;;;;;;;;;;;;;;;;;5075601;28;1313;-74
2021/01/20 04:07:59;;;;;;;;;;;;;;;;;;5075620;28;992;-76
2021/01/20 04:10:24;;;;;;;;;;;;;;;;;;5075400;28;932;-77
2021/01/20 04:12:50;;;;;;;;;;;;;;;;;;5074352;28;913;-76
2021/01/20 04:15:15;;;;;;;;;;;;;;;;;;5075380;28;1412;-78
2021/01/20 04:17:40;;;;;;;;;;;;;;;;;;5074121;28;1959;-74
2021/01/20 04:20:06;;;;;;;;;;;;;;;;;;5075268;28;892;-76
2021/01/20 04:22:32;;;;;;;;;;;;;;;;;;5073958;28;1052;-74
2021/01/20 04:24:57;;;;;;;;;;;;;;;;;;5073812;28;1660;-76
2021/01/20 04:27:23;;;;;;;;;;;;;;;;;;5075364;28;806;-74
2021/01/20 04:29:48;;;;;;;;;;;;;;;;;;5073677;28;872;-77
2021/01/20 04:32:13;;;;;;;;;;;;;;;;;;5075096;28;896;-75
2021/01/20 04:34:38;;;;;;;;;;;;;;;;;;5074818;28;1365;-76
2021/01/20 04:37:04;;;;;;;;;;;;;;;;;;5073626;28;1902;-74
2021/01/20 04:39:29;;;;;;;;;;;;;;;;;;5073578;28;1657;-76
2021/01/20 04:41:55;;;;;;;;;;;;;;;;;;5073747;28;1594;-76
2021/01/20 04:44:20;;;;;;;;;;;;;;;;;;5074767;28;801;-77
2021/01/20 04:46:46;;;;;;;;;;;;;;;;;;5074714;28;1409;-76
2021/01/20 04:49:20;;;;;;;;;;;;;;;;;;5074811;28;983;-74
2021/01/20 04:51:47;;;;;;;;;;;;;;;;;;5074685;28;916;-75
2021/01/20 04:54:12;;;;;;;;;;;;;;;;;;5074599;28;1043;-76
2021/01/20 04:56:38;;;;;;;;;;;;;;;;;;5074784;28;1353;-77
2021/01/20 04:59:04;;;;;;;;;;;;;;;;;;5073408;28;1878;-75
2021/01/20 05:01:29;;;;;;;;;;;;;;;;;;5074773;28;975;-76
2021/01/20 05:03:55;;;;;;;;;;;;;;;;;;5074667;28;1007;-74
2021/01/20 05:06:20;;;;;;;;;;;;;;;;;;5074585;28;1467;-76
2021/01/20 05:08:45;;;;;;;;;;;;;;;;;;5074562;28;947;-75
2021/01/20 05:11:10;;;;;;;;;;;;;;;;;;5074120;28;908;-76
2021/01/20 05:13:36;;;;;;;;;;;;;;;;;;5074367;28;817;-77
2021/01/20 05:16:01;;;;;;;;;;;;;;;;;;5074488;28;1325;-75
2021/01/20 05:18:26;;;;;;;;;;;;;;;;;;5074416;28;1898;-76
2021/01/20 05:20:52;;;;;;;;;;;;;;;;;;5072962;28;880;-77
2021/01/20 05:23:23;;;;;;;;;;;;;;;;;;5074361;28;913;-76
2021/01/20 05:25:48;;;;;;;;;;;;;;;;;;5074418;28;1393;-74
2021/01/20 05:28:17;;;;;;;;;;;;;;;;;;5073671;28;1559;-74
2021/01/20 05:30:46;;;;;;;;;;;;;;;;;;5074421;28;801;-74
2021/01/20 05:33:13;;;;;;;;;;;;;;;;;;5074294;28;837;-73
2021/01/20 05:35:39;;;;;;;;;;;;;;;;;;5074255;28;1274;-74
2021/01/20 05:38:04;;;;;;;;;;;;;;;;;;5073452;28;1889;-76
2021/01/20 05:40:33;;;;;;;;;;;;;;;;;;5074201;28;916;-74
2021/01/20 05:42:58;;;;;;;;;;;;;;;;;;5074371;28;968;-75
2021/01/20 05:45:24;;;;;;;;;;;;;;;;;;5073920;28;1325;-76
2021/01/20 05:47:59;;;;;;;;;;;;;;;;;;5074254;28;825;-73
2021/01/20 05:50:24;;;;;;;;;;;;;;;;;;5074013;28;841;-76
2021/01/20 05:53:03;;;;;;;;;;;;;;;;;;5072899;28;1463;-74
2021/01/20 05:55:28;;;;;;;;;;;;;;;;;;5073855;28;1309;-74
2021/01/20 05:57:53;;;;;;;;;;;;;;;;;;5074154;28;1956;-76
2021/01/20 06:00:19;;;;;;;;;;;;;;;;;;5073920;28;1571;-77
2021/01/20 06:02:44;;;;;;;;;;;;;;;;;;5073955;28;917;-75
2021/01/20 06:05:10;;;;;;;;;;;;;;;;;;5074048;28;1313;-75
2021/01/20 06:07:37;;;;;;;;;;;;;;;;;;5074019;28;868;-75
2021/01/20 06:10:02;;;;;;;;;;;;;;;;;;5073697;28;853;-74
2021/01/20 06:12:27;;;;;;;;;;;;;;;;;;5072790;28;971;-76
2021/01/20 06:14:53;;;;;;;;;;;;;;;;;;5073976;28;1286;-79
2021/01/20 06:17:22;;;;;;;;;;;;;;;;;;5072770;28;1957;-74
2021/01/20 06:19:49;;;;;;;;;;;;;;;;;;5073910;28;888;-78
2021/01/20 06:22:15;;;;;;;;;;;;;;;;;;5074075;28;920;-76
2021/01/20 06:25:13;;;;;;;;;;;;;;;;;;5076930;28;1338;-74
2021/01/20 06:27:38;;;;;;;;;;;;;;;;;;5076403;28;1244;-77
2021/01/20 06:30:22;;;;;;;;;;;;;;;;;;5077311;28;892;-75
2021/01/20 06:32:48;;;;;;;;;;;;;;;;;;5076005;28;849;-74
2021/01/20 06:35:14;;;;;;;;;;;;;;;;;;5076446;28;1297;-75
2021/01/20 06:37:41;;;;;;;;;;;;;;;;;;5077168;28;1949;-74
2021/01/20 06:40:20;;;;;;;;;;;;;;;;;;5075803;28;1322;-76
2021/01/20 06:42:45;;;;;;;;;;;;;;;;;;5076043;28;845;-76
2021/01/20 06:45:16;;;;;;;;;;;;;;;;;;5077226;28;1396;-76
2021/01/20 06:48:00;;;;;;;;;;;;;;;;;;5077198;28;801;-75
2021/01/20 06:50:25;;;;;;;;;;;;;;;;;;5077071;28;817;-74
2021/01/20 06:53:01;;;;;;;;;;;;;;;;;;5076899;28;852;-74
2021/01/20 06:55:36;;;;;;;;;;;;;;;;;;5075852;28;1460;-75
2021/01/20 06:58:21;;;;;;;;;;;;;;;;;;5076784;28;1956;-74
2021/01/20 07:00:59;;;;;;;;;;;;;;;;;;5075492;28;1374;-75
2021/01/20 07:03:39;;;;;;;;;;;;;;;;;;5076789;28;955;-76
2021/01/20 07:06:24;;;;;;;;;;;;;;;;;;5076619;28;1313;-74
2021/01/20 07:08:52;;;;;;;;;;;;;;;;;;5076717;28;1071;-77
2021/01/20 07:11:18;;;;;;;;;;;;;;;;;;5076639;28;880;-76
2021/01/20 07:13:43;;;;;;;;;;;;;;;;;;5076809;28;864;-74
2021/01/20 07:16:10;;;;;;;;;;;;;;;;;;5076495;28;1416;-76
2021/01/20 07:18:37;;;;;;;;;;;;;;;;;;5075405;28;1941;-74
2021/01/20 07:21:05;;;;;;;;;;;;;;;;;;5075337;28;807;-75
2021/01/20 07:23:30;;;;;;;;;;;;;;;;;;5076598;28;1053;-74
2021/01/20 07:25:55;;;;;;;;;;;;;;;;;;5076370;28;1393;-77
2021/01/20 07:28:21;;;;;;;;;;;;;;;;;;5075214;28;1217;-75
2021/01/20 07:30:47;;;;;;;;;;;;;;;;;;5074987;28;916;-76
2021/01/20 07:33:22;;;;;;;;;;;;;;;;;;5075149;28;1154;-77
2021/01/20 07:35:47;;;;;;;;;;;;;;;;;;5074355;28;1298;-76
2021/01/20 07:38:13;;;;;;;;;;;;;;;;;;5074987;28;1894;-77
2021/01/20 07:40:39;;;;;;;;;;;;;;;;;;5075933;28;869;-76
2021/01/20 07:43:05;;;;;;;;;;;;;;;;;;5074872;28;1313;-74
2021/01/20 07:45:30;;;;;;;;;;;;;;;;;;5076242;28;1408;-76
2021/01/20 07:47:55;;;;;;;;;;;;;;;;;;5074886;28;1229;-75
2021/01/20 07:50:21;;;;;;;;;;;;;;;;;;5074970;28;1119;-73
2021/01/20 07:52:47;;;;;;;;;;;;;;;;;;5074734;28;901;-75
2021/01/20 07:55:14;;;;;;;;;;;;;;;;;;5075608;28;1389;-76
2021/01/20 07:57:39;;;;;;;;;;;;;;;;;;5074527;28;1893;-76
2021/01/20 08:00:07;;;;;;;;;;;;;;;;;;5075501;28;916;-76
2021/01/20 08:02:33;;;;;;;;;;;;;;;;;;5075816;28;833;-77
2021/01/20 08:05:01;;;;;;;;;;;;;;;;;;5074302;28;1544;-78
2021/01/20 08:07:27;;;;;;;;;;;;;;;;;;5075581;28;899;-77
2021/01/20 08:09:52;;;;;;;;;;;;;;;;;;5075337;28;944;-77
2021/01/20 08:12:22;;;;;;;;;;;;;;;;;;5075627;28;908;-77
2021/01/20 08:14:49;;;;;;;;;;;;;;;;;;5075375;28;1412;-78
2021/01/20 08:17:14;;;;;;;;;;;;;;;;;;5074137;28;1894;-78
2021/01/20 08:19:40;;;;;;;;;;;;;;;;;;5073771;28;1332;-77
2021/01/20 08:22:12;;;;;;;;;;;;;;;;;;5075568;28;896;-78
2021/01/20 08:24:42;;;;;;;;;;;;;;;;;;5075168;28;1314;-78
2021/01/20 08:27:07;;;;;;;;;;;;;;;;;;5075305;28;858;-77
2021/01/20 08:29:47;;;;;;;;;;;;;;;;;;5075205;28;913;-77
2021/01/20 08:32:12;;;;;;;;;;;;;;;;;;5074256;28;932;-76
2021/01/20 08:34:41;;;;;;;;;;;;;;;;;;5074892;28;1309;-78
2021/01/20 08:37:09;;;;;;;;;;;;;;;;;;5073818;28;1909;-76
2021/01/20 08:39:38;;;;;;;;;;;;;;;;;;5074796;28;821;-78
2021/01/20 08:42:15;;;;;;;;;;;;;;;;;;5073675;28;912;-78
2021/01/20 08:45:01;;;;;;;;;;;;;;;;;;5074385;28;1349;-77
2021/01/20 08:47:26;;;;;;;;;;;;;;;;;;5069104;28;1556;-78
2021/01/20 08:49:53;;;;;;;;;;;;;;;;;;5074077;28;944;-78
2021/01/20 08:52:18;;;;;;;;;;;;;;;;;;5073672;28;1266;-77
2021/01/20 08:54:50;;;;;;;;;;;;;;;;;;5074795;28;1298;-79
2021/01/20 08:57:19;;;;;;;;;;;;;;;;;;5074767;28;1953;-78
2021/01/20 08:59:51;;;;;;;;;;;;;;;;;;5074497;28;916;-78
2021/01/20 09:02:17;;;;;;;;;;;;;;;;;;5073511;28;1425;-77
2021/01/20 09:04:45;;;;;;;;;;;;;;;;;;5074025;28;1298;-78
2021/01/20 09:07:11;;;;;;;;;;;;;;;;;;5074214;28;829;-77
2021/01/20 09:09:36;;;;;;;;;;;;;;;;;;5073077;28;913;-78
2021/01/20 09:12:04;;;;;;;;;;;;;;;;;;5074333;28;864;-77
2021/01/20 09:14:30;;;;;;;;;;;;;;;;;;5074293;28;1301;-78
2021/01/20 09:16:55;;;;;;;;;;;;;;;;;;5073794;28;1951;-77
2021/01/20 09:19:23;;;;;;;;;;;;;;;;;;5073309;28;1605;-79
2021/01/20 09:21:49;;;;;;;;;;;;;;;;;;5073493;28;1087;-77
2021/01/20 09:24:14;;;;;;;;;;;;;;;;;;5073758;28;975;-77
2021/01/20 09:26:39;;;;;;;;;;;;;;;;;;5073848;28;1428;-77
2021/01/20 09:29:04;;;;;;;;;;;;;;;;;;5072377;28;1162;-79
2021/01/20 09:31:29;;;;;;;;;;;;;;;;;;5073296;28;1031;-78
2021/01/20 09:33:55;;;;;;;;;;;;;;;;;;5074076;28;971;-77
2021/01/20 09:36:20;;;;;;;;;;;;;;;;;;5074553;28;1384;-78
2021/01/20 09:38:45;;;;;;;;;;;;;;;;;;5074610;28;1901;-79
2021/01/20 09:41:10;;;;;;;;;;;;;;;;;;5072935;28;1133;-78
2021/01/20 09:43:36;;;;;;;;;;;;;;;;;;5074059;28;821;-79
2021/01/20 09:46:01;;;;;;;;;;;;;;;;;;5072991;28;1445;-80
2021/01/20 09:48:26;;;;;;;;;;;;;;;;;;5074156;28;884;-78
2021/01/20 09:50:51;;;;;;;;;;;;;;;;;;5072798;28;1638;-79
2021/01/20 09:53:17;;;;;;;;;;;;;;;;;;5074058;28;881;-77
2021/01/20 09:55:42;;;;;;;;;;;;;;;;;;5074127;28;1404;-79
2021/01/20 09:58:07;;;;;;;;;;;;;;;;;;5076383;28;1890;-77
2021/01/20 10:00:35;;;;;;;;;;;;;;;;;;5077002;28;881;-76
2021/01/20 10:03:01;;;;;;;;;;;;;;;;;;5078035;28;822;-77
2021/01/20 10:05:26;;;;;;;;;;;;;;;;;;5077771;28;1428;-77
2021/01/20 10:07:51;;;;;;;;;;;;;;;;;;5076624;28;1237;-77
2021/01/20 10:10:17;;;;;;;;;;;;;;;;;;5077408;28;1035;-80
2021/01/20 10:12:42;;;;;;;;;;;;;;;;;;5077792;28;864;-78
2021/01/20 10:15:08;;;;;;;;;;;;;;;;;;5077497;28;1329;-78
2021/01/20 10:17:34;;;;;;;;;;;;;;;;;;5077446;28;1897;-77
2021/01/20 10:19:59;;;;;;;;;;;;;;;;;;5077571;28;905;-77
2021/01/20 10:22:24;;;;;;;;;;;;;;;;;;5077661;28;817;-79
2021/01/20 10:24:50;;;;;;;;;;;;;;;;;;5077544;28;1286;-77
2021/01/20 10:27:15;;;;;;;;;;;;;;;;;;5076268;28;1313;-79
2021/01/20 10:29:40;;;;;;;;;;;;;;;;;;5076271;28;1246;-77
2021/01/20 10:32:05;;;;;;;;;;;;;;;;;;5077370;28;879;-79
2021/01/20 10:34:31;;;;;;;;;;;;;;;;;;5077353;28;1423;-78
2021/01/20 10:36:57;;;;;;;;;;;;;;;;;;5077309;28;1959;-77
2021/01/20 10:39:22;;;;;;;;;;;;;;;;;;5077626;28;849;-79
2021/01/20 10:41:48;;;;;;;;;;;;;;;;;;5076950;28;893;-78
2021/01/20 10:44:13;;;;;;;;;;;;;;;;;;5077207;28;940;-79
2021/01/20 10:46:39;;;;;;;;;;;;;;;;;;5075862;28;1468;-78
2021/01/20 10:49:04;;;;;;;;;;;;;;;;;;5077146;28;901;-78
2021/01/20 10:51:33;;;;;;;;;;;;;;;;;;5075651;28;2299;-77
2021/01/20 10:53:59;;;;;;;;;;;;;;;;;;5075889;28;978;-76
2021/01/20 10:56:24;;;;;;;;;;;;;;;;;;5076882;28;1433;-76
2021/01/20 10:58:49;;;;;;;;;;;;;;;;;;5075720;28;1901;-76
2021/01/20 11:01:15;;;;;;;;;;;;;;;;;;5075286;28;889;-75
2021/01/20 11:03:40;;;;;;;;;;;;;;;;;;5075631;28;861;-75
2021/01/20 11:06:08;;;;;;;;;;;;;;;;;;5075666;28;1341;-76
2021/01/20 11:08:34;;;;;;;;;;;;;;;;;;5076331;28;900;-77
2021/01/20 11:10:59;;;;;;;;;;;;;;;;;;5076453;28;921;-76
2021/01/20 11:13:24;;;;;;;;;;;;;;;;;;5074893;28;1197;-75
2021/01/20 11:15:50;;;;;;;;;;;;;;;;;;5077211;28;1314;-77
2021/01/20 11:18:16;;;;;;;;;;;;;;;;;;5076719;28;1966;-75
2021/01/20 11:20:42;;;;;;;;;;;;;;;;;;5076078;28;912;-76
2021/01/20 11:23:10;;;;;;;;;;;;;;;;;;5076240;28;885;-77
2021/01/20 11:25:35;;;;;;;;;;;;;;;;;;5074825;28;1392;-76
2021/01/20 11:28:01;;;;;;;;;;;;;;;;;;5074814;28;801;-76
2021/01/20 11:30:26;;;;;;;;;;;;;;;;;;5075566;28;809;-74
2021/01/20 11:32:52;;;;;;;;;;;;;;;;;;5075836;28;813;-75
2021/01/20 11:35:17;;;;;;;;;;;;;;;;;;5076209;28;1502;-76
2021/01/20 11:37:43;;;;;;;;;;;;;;;;;;5074233;28;1955;-76
2021/01/20 11:40:08;;;;;;;;;;;;;;;;;;5073837;28;810;-76
2021/01/20 11:42:34;;;;;;;;;;;;;;;;;;5075381;28;1089;-76
2021/01/20 11:45:00;;;;;;;;;;;;;;;;;;5075445;28;1298;-74
2021/01/20 11:47:25;;;;;;;;;;;;;;;;;;5076066;28;855;-74
2021/01/20 11:49:54;;;;;;;;;;;;;;;;;;5074754;28;941;-74
2021/01/20 11:52:19;;;;;;;;;;;;;;;;;;5074527;28;1405;-75
2021/01/20 11:54:45;;;;;;;;;;;;;;;;;;5074807;28;1437;-75
2021/01/20 11:57:10;;;;;;;;;;;;;;;;;;5075821;28;1955;-76
2021/01/20 11:59:35;;;;;;;;;;;;;;;;;;5075274;28;904;-76
2021/01/20 12:02:01;;;;;;;;;;;;;;;;;;5065526;28;2107;-76
2021/01/20 12:04:26;;;;;;;;;;;;;;;;;;5055636;28;909;-76
2021/01/20 12:06:51;;;;;;;;;;;;;;;;;;5055485;28;1428;-77
2021/01/20 12:09:16;;;;;;;;;;;;;;;;;;5055162;28;865;-75
2021/01/20 12:11:42;;;;;;;;;;;;;;;;;;5054014;28;881;-74
2021/01/20 12:14:10;;;;;;;;;;;;;;;;;;5055254;28;861;-74
2021/01/20 12:16:36;;;;;;;;;;;;;;;;;;5054947;28;1290;-74
2021/01/20 12:19:01;;;;;;;;;;;;;;;;;;5053542;28;1906;-76
2021/01/20 12:21:26;;;;;;;;;;;;;;;;;;5053625;28;1058;-74
2021/01/20 12:23:52;;;;;;;;;;;;;;;;;;5055229;28;888;-76
2021/01/20 12:26:18;;;;;;;;;;;;;;;;;;5055853;28;1334;-76
2021/01/20 12:28:44;;;;;;;;;;;;;;;;;;5053766;28;1177;-76
2021/01/20 12:31:09;;;;;;;;;;;;;;;;;;5054434;28;979;-73
2021/01/20 12:33:34;;;;;;;;;;;;;;;;;;5054951;28;830;-73
2021/01/20 12:35:59;;;;;;;;;;;;;;;;;;5054116;28;1342;-74
2021/01/20 12:38:25;;;;;;;;;;;;;;;;;;5051799;28;1918;-74
2021/01/20 12:40:50;;;;;;;;;;;;;;;;;;5050545;28;1529;-74
2021/01/20 12:43:15;;;;;;;;;;;;;;;;;;5053271;28;2517;-75
2021/01/20 12:45:40;;;;;;;;;;;;;;;;;;5053088;28;1365;-74
2021/01/20 12:48:07;;;;;;;;;;;;;;;;;;5054275;28;971;-76
2021/01/20 12:50:33;;;;;;;;;;;;;;;;;;5053231;28;845;-74
2021/01/20 12:52:58;;;;;;;;;;;;;;;;;;5052165;28;814;-75
2021/01/20 12:55:24;;;;;;;;;;;;;;;;;;5053168;28;1326;-74
2021/01/20 12:57:50;;;;;;;;;;;;;;;;;;5054703;28;1945;-74
2021/01/20 13:00:15;;;;;;;;;;;;;;;;;;5054395;28;1063;-74
2021/01/20 13:02:40;;;;;;;;;;;;;;;;;;5054404;28;935;-74
2021/01/20 13:05:06;;;;;;;;;;;;;;;;;;5054447;28;1345;-76
2021/01/20 13:07:31;;;;;;;;;;;;;;;;;;5054042;28;786;-74
2021/01/20 13:09:59;;;;;;;;;;;;;;;;;;5053968;28;881;-76
2021/01/20 13:12:25;;;;;;;;;;;;;;;;;;5056719;28;1512;-74
2021/01/20 13:14:50;;;;;;;;;;;;;;;;;;5072641;28;1298;-75
2021/01/20 13:17:15;;;;;;;;;;;;;;;;;;5073277;28;1973;-75
2021/01/20 13:19:40;;;;;;;;;;;;;;;;;;5074100;28;872;-75
2021/01/20 13:22:06;;;;;;;;;;;;;;;;;;5073654;28;996;-75
2021/01/20 13:24:31;;;;;;;;;;;;;;;;;;5074140;28;1310;-75
2021/01/20 13:26:56;;;;;;;;;;;;;;;;;;5074092;28;901;-74
2021/01/20 13:29:21;;;;;;;;;;;;;;;;;;5074158;28;896;-76
2021/01/20 13:31:49;;;;;;;;;;;;;;;;;;5074944;28;885;-74
2021/01/20 13:34:14;;;;;;;;;;;;;;;;;;5080768;28;900;-75
2021/01/20 13:36:39;;;;;;;;;;;;;;;;;;5079432;28;1475;-75
2021/01/20 13:39:04;;;;;;;;;;;;;;;;;;5079187;28;1980;-74
2021/01/20 13:41:30;;;;;;;;;;;;;;;;;;5080940;28;848;-74
2021/01/20 13:43:55;;;;;;;;;;;;;;;;;;5079799;28;833;-75
2021/01/20 13:46:20;;;;;;;;;;;;;;;;;;5080767;28;1305;-74
2021/01/20 13:48:46;;;;;;;;;;;;;;;;;;5079598;28;911;-75
2021/01/20 13:51:11;;;;;;;;;;;;;;;;;;5080120;28;841;-74
2021/01/20 13:53:36;;;;;;;;;;;;;;;;;;5079128;28;1259;-74
2021/01/20 13:56:01;;;;;;;;;;;;;;;;;;5080702;28;1305;-74
2021/01/20 13:58:27;;;;;;;;;;;;;;;;;;5079580;28;1902;-74
2021/01/20 14:00:52;;;;;;;;;;;;;;;;;;5080322;28;947;-74
2021/01/20 14:03:17;;;;;;;;;;;;;;;;;;5079669;28;1213;-74
2021/01/20 14:05:42;;;;;;;;;;;;;;;;;;5078954;28;1725;-74
2021/01/20 14:08:08;;;;;;;;;;;;;;;;;;5076607;28;1342;-75
2021/01/20 14:10:33;;;;;;;;;;;;;;;;;;5080167;28;888;-75
2021/01/20 14:12:58;;;;;;;;;;;;;;;;;;5080281;28;972;-76
2021/01/20 14:15:23;;;;;;;;;;;;;;;;;;5080329;28;1345;-74
2021/01/20 14:17:49;;;;;;;;;;;;;;;;;;5080385;28;1901;-74
2021/01/20 14:20:14;;;;;;;;;;;;;;;;;;5080162;28;879;-75
2021/01/20 14:22:39;;;;;;;;;;;;;;;;;;5080780;28;880;-74
2021/01/20 14:25:05;;;;;;;;;;;;;;;;;;5079031;28;1424;-74
2021/01/20 14:27:33;;;;;;;;;;;;;;;;;;5077931;28;1197;-75
2021/01/20 14:29:59;;;;;;;;;;;;;;;;;;5080968;28;919;-75
2021/01/20 14:32:24;;;;;;;;;;;;;;;;;;5080106;28;840;-74
2021/01/20 14:34:49;;;;;;;;;;;;;;;;;;5078586;28;1412;-74
2021/01/20 14:37:14;;;;;;;;;;;;;;;;;;5080021;28;1973;-74
2021/01/20 14:39:40;;;;;;;;;;;;;;;;;;5078515;28;1362;-74
2021/01/20 14:42:05;;;;;;;;;;;;;;;;;;5079851;28;821;-75
2021/01/20 14:44:30;;;;;;;;;;;;;;;;;;5073070;28;1357;-76
2021/01/20 14:46:56;;;;;;;;;;;;;;;;;;5075940;28;928;-75
2021/01/20 14:49:21;;;;;;;;;;;;;;;;;;5075922;28;1313;-75
2021/01/20 14:51:47;;;;;;;;;;;;;;;;;;5076970;28;825;-74
2021/01/20 14:54:12;;;;;;;;;;;;;;;;;;5075720;28;1227;-76
2021/01/20 14:56:38;;;;;;;;;;;;;;;;;;5075712;28;1489;-75
2021/01/20 14:59:03;;;;;;;;;;;;;;;;;;5075424;28;1894;-76
2021/01/20 15:01:28;;;;;;;;;;;;;;;;;;5076829;28;810;-74
2021/01/20 15:03:54;;;;;;;;;;;;;;;;;;5075767;28;1239;-73
2021/01/20 15:06:19;;;;;;;;;;;;;;;;;;5076882;28;1305;-74
2021/01/20 15:08:44;;;;;;;;;;;;;;;;;;5076911;28;899;-73
2021/01/20 15:11:09;;;;;;;;;;;;;;;;;;5074696;28;853;-76
2021/01/20 15:13:35;;;;;;;;;;;;;;;;;;5076787;28;991;-75
2021/01/20 15:16:00;;;;;;;;;;;;;;;;;;5075231;28;1709;-76
2021/01/20 15:18:25;;;;;;;;;;;;;;;;;;5076393;28;1902;-74
2021/01/20 15:20:54;;;;;;;;;;;;;;;;;;5075317;28;1129;-76
2021/01/20 15:23:20;;;;;;;;;;;;;;;;;;5076393;28;931;-76
2021/01/20 15:25:45;;;;;;;;;;;;;;;;;;5076351;28;1302;-74
2021/01/20 15:28:11;;;;;;;;;;;;;;;;;;5076414;28;1211;-74
2021/01/20 15:30:36;;;;;;;;;;;;;;;;;;5076122;28;813;-74
2021/01/20 15:33:01;;;;;;;;;;;;;;;;;;5076241;28;829;-75
2021/01/20 15:35:26;;;;;;;;;;;;;;;;;;5076201;28;1404;-77
2021/01/20 15:37:52;;;;;;;;;;;;;;;;;;5058082;28;1894;-79
2021/01/20 15:40:17;;;;;;;;;;;;;;;;;;5075116;28;1120;-77
2021/01/20 15:42:42;;;;;;;;;;;;;;;;;;5076092;28;928;-76
2021/01/20 15:45:08;;;;;;;;;;;;;;;;;;5074804;28;1369;-79
2021/01/20 15:47:33;;;;;;;;;;;;;;;;;;5075139;28;920;-78
2021/01/20 15:49:58;;;;;;;;;;;;;;;;;;5075761;28;821;-77
2021/01/20 15:52:24;;;;;;;;;;;;;;;;;;5075822;28;904;-79
2021/01/20 15:54:49;;;;;;;;;;;;;;;;;;5075565;28;1413;-78
2021/01/20 15:57:14;;;;;;;;;;;;;;;;;;5075947;28;1897;-77
2021/01/20 15:59:39;;;;;;;;;;;;;;;;;;5075842;28;972;-77
2021/01/20 16:02:04;;;;;;;;;;;;;;;;;;5075870;28;976;-76
2021/01/20 16:04:31;;;;;;;;;;;;;;;;;;5073981;28;1434;-79
2021/01/20 16:06:56;;;;;;;;;;;;;;;;;;5076058;28;896;-77
2021/01/20 16:09:26;;;;;;;;;;;;;;;;;;5073745;28;865;-79
2021/01/20 16:11:51;;;;;;;;;;;;;;;;;;5074004;28;869;-76
2021/01/20 16:14:17;;;;;;;;;;;;;;;;;;5075405;28;939;-78
2021/01/20 16:16:42;;;;;;;;;;;;;;;;;;5075024;28;1345;-79
2021/01/20 16:19:08;;;;;;;;;;;;;;;;;;5075577;28;1959;-80
2021/01/20 16:21:33;;;;;;;;;;;;;;;;;;5075773;28;844;-78
2021/01/20 16:23:58;;;;;;;;;;;;;;;;;;5073887;28;1527;-78
2021/01/20 16:26:24;;;;;;;;;;;;;;;;;;5072103;28;1385;-77
2021/01/20 16:28:52;;;;;;;;;;;;;;;;;;5074116;28;877;-79
2021/01/20 16:31:17;;;;;;;;;;;;;;;;;;5075845;28;901;-76
2021/01/20 16:33:43;;;;;;;;;;;;;;;;;;5074037;28;900;-77
2021/01/20 16:36:08;;;;;;;;;;;;;;;;;;5074874;28;1412;-79
2021/01/20 16:38:34;;;;;;;;;;;;;;;;;;5073390;28;1889;-79
2021/01/20 16:40:59;;;;;;;;;;;;;;;;;;5073775;28;932;-77
2021/01/20 16:43:24;;;;;;;;;;;;;;;;;;5074583;28;955;-76
2021/01/20 16:45:49;;;;;;;;;;;;;;;;;;5074804;28;1313;-76
2021/01/20 16:48:15;;;;;;;;;;;;;;;;;;5072020;28;1202;-79
2021/01/20 16:50:40;;;;;;;;;;;;;;;;;;5074562;28;821;-77
2021/01/20 16:53:05;;;;;;;;;;;;;;;;;;5074774;28;822;-79
2021/01/20 16:55:30;;;;;;;;;;;;;;;;;;5074341;28;1326;-77
2021/01/20 16:57:56;;;;;;;;;;;;;;;;;;5074718;28;1890;-78
2021/01/20 17:00:21;;;;;;;;;;;;;;;;;;5073227;28;951;-77
2021/01/20 17:02:47;;;;;;;;;;;;;;;;;;5074571;28;1141;-76
2021/01/20 17:05:12;;;;;;;;;;;;;;;;;;5073324;28;2814;-77